Waipahu, Hawaii
Current Conditions -  °F | °C
As of 8:53 AM on Friday 24 Oct 2014 (Local Time) from PHNL Reporting Station
Scattered Clouds Scattered Clouds  
Wind Chill: 83°   Ceiling: Unl
Heat Index: 87°   Visibility: 10mi
Dew Point: 70°   Wind: 10mph
Humidity: 65%   Direction: 70°ENE
Pressure: 30.04"   Gusts: NA
Location:  21.39°N, 158°W
Report Text: PHNL 241853Z 07009KT 10SM FEW025 SCT040 SCT090 28/21 A3004 RMK AO2 SLP171 VCSH NE-E T02830211
Loading
Personal Weather Stations






























Interactive Weather Map
Tropical Storm Tracking
New forecast layout! Learn more

10-Day Weather Forecast

Advertisements
Track Severe Weather on mobile